EDT,Max TemperatureF,Mean TemperatureF,Min TemperatureF,Max Dew PointF,MeanDew PointF,Min DewpointF,Max Humidity, Mean Humidity, Min Humidity, Max Sea Level PressureIn, Mean Sea Level PressureIn, Min Sea Level PressureIn, Max VisibilityMiles, Mean VisibilityMiles, Min VisibilityMiles, Max Wind SpeedMPH, Mean Wind SpeedMPH, Max Gust SpeedMPH,PrecipitationIn, CloudCover, Events, WindDirDegrees
2013-3-1,36,34,31,29,28,26,85,80,75,30.07,30.01,29.96,10,4,1,13,5,15,0.03,8,Snow,342
2013-3-2,32,30,27,27,22,19,85,72,59,30.14,30.09,30.03,10,9,2,20,8,23,T,8,Snow,351
2013-3-3,37,28,19,22,18,13,84,63,41,30.15,30.11,30.07,10,9,2,10,4,14,T,3,Snow,291
2013-3-4,40,30,19,24,19,15,84,64,44,30.13,30.05,29.93,10,10,9,17,7,22,T,4,Rain,123
2013-3-5,40,35,29,37,29,24,100,80,59,29.91,29.75,29.65,10,3,0,26,10,44,0.26,8,Fog-Rain-Snow,280
2013-3-6,32,31,29,27,26,25,92,85,78,30.31,30.03,29.78,10,5,1,22,9,33,0.04,8,Snow,314
2013-3-7,36,32,28,27,25,22,85,71,56,30.40,30.36,30.27,10,9,6,8,2,12,0.00,8,,342
2013-3-8,47,35,23,27,24,21,88,65,42,30.48,30.41,30.35,10,9,5,12,3,14,0.00,1,,90
2013-3-9,56,45,33,32,29,23,75,57,38,30.32,30.16,29.96,10,10,10,16,10,24,T,2,,141
2013-3-10,67,59,50,46,36,32,57,44,30,29.94,29.84,29.73,10,10,10,25,13,37,0.03,3,Rain,173
2013-3-11,56,45,34,50,41,27,96,82,67,29.92,29.72,29.65,10,8,2,23,12,32,0.18,8,Rain,230
2013-3-12,45,39,32,31,26,21,82,64,45,30.08,30.00,29.91,10,10,8,16,11,29,0.01,6,Rain-Snow,269
2013-3-13,33,28,23,27,20,14,81,70,58,30.38,30.19,30.06,10,5,0,18,9,32,0.01,7,Snow,296
2013-3-14,42,30,18,30,25,15,92,65,38,30.38,30.28,30.17,10,5,0,15,4,18,0.05,5,Fog-Snow,203
2013-3-15,55,40,24,40,29,21,92,70,47,30.16,29.98,29.71,10,5,0,9,4,,0.00,2,Fog,159
2013-3-16,60,48,36,48,39,29,83,71,59,30.03,29.81,29.61,10,9,5,20,9,25,0.01,5,Rain,329
2013-3-17,39,36,33,31,28,26,89,77,64,30.13,30.03,29.91,10,8,2,18,10,23,0.65,8,Rain-Snow,59
2013-3-18,45,40,35,41,32,27,100,79,57,29.90,29.73,29.63,10,6,1,20,11,26,0.56,7,Rain,180
2013-3-19,43,35,27,32,19,17,82,59,36,30.16,30.06,29.88,10,10,10,26,12,38,0.00,0,,271
2013-3-20,34,29,24,18,13,6,68,54,39,30.14,30.09,30.05,10,10,5,22,10,28,T,4,Snow,286
2013-3-21,36,28,19,14,10,6,73,53,32,30.08,30.04,30.01,10,9,1,12,4,17,T,3,Snow,319
2013-3-22,46,31,16,20,14,11,80,54,27,30.09,30.05,29.99,10,10,8,10,2,13,0.00,2,,221
2013-3-23,55,45,35,24,20,15,64,45,26,30.05,29.99,29.86,10,10,10,15,7,22,0.00,4,,63
2013-3-24,41,36,30,31,28,21,92,69,46,29.86,29.57,29.38,10,4,0,25,11,32,0.34,8,Rain-Snow,61
2013-3-25,33,31,29,30,27,25,92,85,78,30.04,29.78,29.48,10,3,0,15,8,21,0.04,8,Fog-Snow,301
2013-3-26,38,34,29,28,25,19,85,67,48,30.29,30.16,30.03,10,9,5,14,6,17,T,8,Snow,302
2013-3-27,45,35,25,25,22,21,81,62,43,30.36,30.32,30.30,10,10,9,14,4,17,0.00,3,,292
2013-3-28,52,37,22,27,23,19,88,61,33,30.39,30.34,30.29,10,10,7,10,2,15,0.00,0,,351
2013-3-29,56,42,28,33,27,24,89,61,32,30.32,30.27,30.21,10,10,7,10,2,14,0.00,5,,34
2013-3-30,60,44,27,34,30,24,85,59,33,30.23,30.11,29.93,10,9,4,16,4,21,T,0,,157
2013-3-31,60,53,46,45,42,38,93,70,47,29.91,29.84,29.81,10,6,1,20,7,24,0.03,7,Rain,268